Time;durP1;ratioP1;P1;durP2;ratioP2;P2;SDS_P1;SDS_P2;PMS_P1;PMS_P2;Temp;Humidity;BMP_temperature;BMP_pressure;BME280_temperature;BME280_humidity;BME280_pressure;Samples;Min_cycle;Max_cycle;Signal;HPM_P1;HPM_P2
2021/11/07 00:12:32;;;;;;;7.28;0.57;;;;;;;12.06;100.00;100056.00;5074868;28;20051;-54
2021/11/07 00:15:35;;;;;;;17.88;1.05;;;;;;;11.99;100.00;100042.41;5076371;28;20471;-54
2021/11/07 00:18:46;;;;;;;7.72;0.85;;;;;;;12.11;100.00;100052.53;5076753;28;20075;-53
2021/11/07 00:25:03;;;;;;;1.17;0.77;;;;;;;11.95;100.00;100039.81;5074585;28;20109;-54
2021/11/07 00:28:12;;;;;;;2.08;0.77;;;;;;;11.80;100.00;100030.66;5074334;28;20090;-54
2021/11/07 00:31:22;;;;;;;0.77;0.50;;;;;;;11.65;100.00;100043.78;5074366;28;20052;-53
2021/11/07 00:37:48;;;;;;;4.70;0.45;;;;;;;11.64;100.00;100033.88;5074207;28;20070;-53
2021/11/07 00:47:13;;;;;;;0.38;0.32;;;;;;;11.72;100.00;100035.06;5073886;28;20061;-53
2021/11/07 00:50:20;;;;;;;18.25;0.88;;;;;;;11.71;100.00;100038.34;5074057;28;20134;-53
2021/11/07 00:56:52;;;;;;;6.18;1.23;;;;;;;11.67;100.00;100043.34;5073793;28;20082;-53
2021/11/07 01:00:01;;;;;;;0.55;0.50;;;;;;;11.56;100.00;100037.53;5073556;28;20388;-53
2021/11/07 01:03:11;;;;;;;7.35;0.50;;;;;;;11.45;100.00;100043.66;5073768;28;20404;-53
2021/11/07 01:06:15;;;;;;;0.40;0.40;;;;;;;11.45;100.00;100049.25;5073856;28;20051;-53
2021/11/07 01:09:18;;;;;;;1.30;0.52;;;;;;;11.45;100.00;100043.66;5073613;28;20047;-53
2021/11/07 01:12:23;;;;;;;4.78;0.43;;;;;;;11.43;100.00;100038.53;5073329;28;20120;-54
2021/11/07 01:15:29;;;;;;;3.47;0.57;;;;;;;11.47;100.00;100043.19;5073670;28;20051;-54
2021/11/07 01:18:32;;;;;;;8.30;1.65;;;;;;;11.48;100.00;100042.69;5079845;28;20605;-54
2021/11/07 01:21:38;;;;;;;0.50;0.38;;;;;;;11.52;100.00;100043.28;5073157;28;20047;-53
2021/11/07 01:24:50;;;;;;;0.55;0.55;;;;;;;11.51;100.00;100041.75;5072952;28;20066;-53
2021/11/07 01:27:55;;;;;;;1.00;0.45;;;;;;;11.53;100.00;100050.41;5073344;28;20170;-54
2021/11/07 01:30:59;;;;;;;3.75;0.73;;;;;;;11.53;100.00;100039.25;5072851;28;20043;-53
2021/11/07 01:34:04;;;;;;;5.68;1.52;;;;;;;11.52;100.00;100042.53;5072874;28;20098;-54
2021/11/07 01:37:14;;;;;;;5.45;0.75;;;;;;;11.59;100.00;100030.97;5073069;28;20051;-54
2021/11/07 01:40:20;;;;;;;2.55;0.88;;;;;;;11.55;100.00;100031.16;5072855;28;20546;-53
2021/11/07 01:43:24;;;;;;;1.00;0.35;;;;;;;11.54;100.00;100032.44;5072768;28;20105;-53
2021/11/07 01:46:32;;;;;;;1.92;0.82;;;;;;;11.58;100.00;100029.44;5072420;28;20109;-53
2021/11/07 01:49:38;;;;;;;0.77;0.50;;;;;;;11.58;100.00;100035.81;5072889;28;20431;-52
2021/11/07 01:52:43;;;;;;;1.65;0.70;;;;;;;11.50;100.00;100040.19;5072327;28;20117;-53
2021/11/07 01:55:48;;;;;;;1.52;0.90;;;;;;;11.43;100.00;100052.47;5072623;28;20089;-53
2021/11/07 01:58:51;;;;;;;3.00;0.57;;;;;;;11.32;100.00;100051.50;5072515;28;20063;-53
2021/11/07 02:01:58;;;;;;;14.57;0.90;;;;;;;11.20;100.00;100044.91;5072659;28;20133;-53
2021/11/07 02:05:04;;;;;;;10.25;1.25;;;;;;;11.12;100.00;100062.47;5072694;28;20101;-53
2021/11/07 02:08:07;;;;;;;1.48;0.30;;;;;;;11.09;100.00;100060.63;5072819;28;20094;-53
2021/11/07 02:11:10;;;;;;;0.50;0.47;;;;;;;11.03;100.00;100060.50;5072620;28;20127;-52
2021/11/07 02:14:13;;;;;;;0.17;0.17;;;;;;;10.97;100.00;100058.84;5072303;28;20065;-52
2021/11/07 02:17:16;;;;;;;2.20;0.80;;;;;;;10.81;100.00;100075.94;5087976;28;20089;-53
2021/11/07 02:20:33;;;;;;;2.28;0.70;;;;;;;10.69;100.00;100074.94;5072042;28;20035;-53
2021/11/07 02:23:36;;;;;;;7.00;0.90;;;;;;;10.63;100.00;100063.66;5072515;28;20404;-52
2021/11/07 02:26:49;;;;;;;0.73;0.40;;;;;;;10.56;100.00;100075.16;5071807;28;20039;-52
2021/11/07 02:29:52;;;;;;;0.50;0.50;;;;;;;10.53;100.00;100067.72;5072514;28;20051;-53
2021/11/07 02:32:55;;;;;;;5.25;0.70;;;;;;;10.59;100.00;100068.63;5072383;28;20055;-52
2021/11/07 02:36:11;;;;;;;2.20;0.70;;;;;;;10.52;100.00;100071.78;5072203;28;20060;-52
2021/11/07 02:39:16;;;;;;;1.35;0.95;;;;;;;10.44;100.00;100059.41;5072449;28;20051;-52
2021/11/07 02:42:18;;;;;;;0.45;0.45;;;;;;;10.44;100.00;100059.41;5072391;28;20098;-52
2021/11/07 02:45:22;;;;;;;3.05;1.45;;;;;;;10.43;100.00;100066.22;5072307;28;20067;-52
2021/11/07 02:48:25;;;;;;;0.75;0.55;;;;;;;10.51;100.00;100075.00;5072636;28;20093;-52
2021/11/07 02:51:31;;;;;;;3.15;0.45;;;;;;;10.59;100.00;100068.63;5071953;28;20079;-52
2021/11/07 02:54:35;;;;;;;0.40;0.40;;;;;;;10.59;100.00;100065.06;5072456;28;20039;-53
2021/11/07 02:57:38;;;;;;;0.52;0.52;;;;;;;10.55;100.00;100051.31;5072000;28;20056;-52
2021/11/07 03:00:41;;;;;;;2.70;1.20;;;;;;;10.58;100.00;100036.47;5071828;28;20431;-52
2021/11/07 03:03:44;;;;;;;0.28;0.28;;;;;;;10.56;100.00;100052.88;5071581;28;20561;-53
2021/11/07 03:06:47;;;;;;;2.17;0.38;;;;;;;10.50;100.00;100043.59;5072550;28;20035;-52
2021/11/07 03:09:50;;;;;;;0.17;0.17;;;;;;;10.41;100.00;100046.44;5075616;28;20557;-52
2021/11/07 03:13:10;;;;;;;0.90;0.90;;;;;;;10.42;100.00;100047.97;5075659;28;20048;-52
2021/11/07 03:16:13;;;;;;;1.80;0.65;;;;;;;10.49;100.00;100061.56;5077863;28;20090;-52
2021/11/07 03:19:19;;;;;;;4.70;1.40;;;;;;;10.62;100.00;100062.13;5089688;28;20445;-52
2021/11/07 03:22:27;;;;;;;1.10;0.88;;;;;;;10.73;100.00;100056.03;5089593;28;20408;-53
2021/11/07 03:25:30;;;;;;;8.68;1.02;;;;;;;10.90;100.00;100050.84;5075287;28;20047;-53
2021/11/07 03:28:34;;;;;;;1.20;0.70;;;;;;;10.93;100.00;100052.69;5075349;28;20388;-52
2021/11/07 03:34:48;;;;;;;1.75;1.25;;;;;;;10.85;100.00;100043.16;5075298;28;20044;-52
2021/11/07 03:37:57;;;;;;;5.85;1.48;;;;;;;10.80;100.00;100043.78;5075212;28;20392;-53
2021/11/07 03:41:03;;;;;;;3.55;0.52;;;;;;;10.81;100.00;100045.31;5074869;28;20044;-53
2021/11/07 03:44:06;;;;;;;2.60;0.52;;;;;;;10.75;100.00;100052.78;5075011;28;20451;-53
2021/11/07 03:47:10;;;;;;;0.60;0.60;;;;;;;10.64;100.00;100053.28;5074903;28;20439;-53
2021/11/07 03:50:14;;;;;;;5.70;0.85;;;;;;;10.58;100.00;100066.31;5075291;28;20482;-53
2021/11/07 03:53:17;;;;;;;0.13;0.13;;;;;;;10.50;100.00;100067.91;5074798;28;20059;-53
2021/11/07 03:56:21;;;;;;;0.20;0.20;;;;;;;10.44;100.00;100066.97;5074806;28;20138;-53
2021/11/07 03:59:24;;;;;;;0.73;0.40;;;;;;;10.41;100.00;100052.00;5074925;28;20048;-52
2021/11/07 04:02:28;;;;;;;2.75;0.65;;;;;;;10.37;100.00;100051.38;5074876;28;20039;-53
2021/11/07 04:05:33;;;;;;;1.10;0.38;;;;;;;10.33;100.00;100072.28;5074789;28;20098;-53
2021/11/07 04:08:36;;;;;;;0.57;0.47;;;;;;;10.25;100.00;100071.84;5074708;28;20106;-54
2021/11/07 04:11:40;;;;;;;20.45;1.02;;;;;;;10.26;100.00;100045.56;5074423;28;20495;-53
2021/11/07 04:14:43;;;;;;;2.17;0.85;;;;;;;10.14;100.00;100065.22;5073532;28;20381;-53
2021/11/07 04:17:47;;;;;;;3.85;1.05;;;;;;;10.18;100.00;100058.25;5074289;28;20051;-53
2021/11/07 04:20:49;;;;;;;3.50;0.75;;;;;;;10.22;100.00;100067.19;5074302;28;20039;-54
2021/11/07 04:23:53;;;;;;;12.95;0.73;;;;;;;10.37;100.00;100061.75;5074580;28;20087;-54
2021/11/07 04:26:56;;;;;;;3.60;0.90;;;;;;;10.44;100.00;100064.97;5074010;28;20036;-53
2021/11/07 04:29:59;;;;;;;0.50;0.50;;;;;;;10.52;100.00;100068.97;5073688;28;20086;-54
2021/11/07 04:33:03;;;;;;;0.55;0.52;;;;;;;10.54;100.00;100071.28;5074187;28;20051;-53
2021/11/07 04:36:06;;;;;;;4.78;0.88;;;;;;;10.64;100.00;100073.56;5074492;28;20055;-52
2021/11/07 04:39:09;;;;;;;4.47;0.95;;;;;;;10.72;100.00;100071.19;5074310;28;20535;-53
2021/11/07 04:42:13;;;;;;;2.05;0.35;;;;;;;10.80;100.00;100080.00;5074356;28;20078;-53
2021/11/07 04:45:17;;;;;;;2.85;0.40;;;;;;;10.78;100.00;100079.69;5074147;28;20106;-53
2021/11/07 04:48:20;;;;;;;1.52;1.42;;;;;;;10.74;100.00;100056.81;5073772;28;20082;-52
2021/11/07 04:51:23;;;;;;;7.40;0.75;;;;;;;10.70;100.00;100056.97;5074431;28;20507;-52
2021/11/07 04:54:27;;;;;;;3.92;0.95;;;;;;;10.66;100.00;100073.88;5073769;28;20043;-52
2021/11/07 04:57:29;;;;;;;8.98;1.00;;;;;;;10.58;100.00;100091.38;5073885;28;20515;-53
2021/11/07 05:00:34;;;;;;;0.60;0.57;;;;;;;10.71;100.00;100074.47;5073226;28;20035;-52
2021/11/07 05:03:37;;;;;;;2.45;1.38;;;;;;;10.84;100.00;100073.00;5073807;28;20136;-52
2021/11/07 05:06:41;;;;;;;7.32;1.08;;;;;;;10.75;100.00;100069.47;5073516;28;20047;-52
2021/11/07 05:09:43;;;;;;;13.05;1.05;;;;;;;10.61;100.00;100073.75;5073549;28;20059;-52
2021/11/07 05:12:46;;;;;;;0.63;0.43;;;;;;;10.52;100.00;100091.25;5090280;28;20039;-52
2021/11/07 05:15:50;;;;;;;15.70;0.68;;;;;;;10.45;100.00;100069.31;5077064;28;20058;-52
2021/11/07 05:18:52;;;;;;;3.38;0.85;;;;;;;10.49;100.00;100056.00;5073306;28;20059;-52
2021/11/07 05:21:55;;;;;;;6.20;0.93;;;;;;;10.46;100.00;100067.31;5072983;28;20047;-52
2021/11/07 05:24:58;;;;;;;4.57;0.90;;;;;;;10.56;100.00;100075.16;5073326;28;20067;-52
2021/11/07 05:28:01;;;;;;;1.10;0.70;;;;;;;10.55;100.00;100087.53;5073394;28;20074;-52
2021/11/07 05:31:04;;;;;;;6.38;0.57;;;;;;;10.53;100.00;100076.06;5072760;28;20098;-52
2021/11/07 05:34:07;;;;;;;0.38;0.38;;;;;;;10.46;100.00;100086.78;5072842;28;20378;-52
2021/11/07 05:37:10;;;;;;;4.05;0.93;;;;;;;10.45;100.00;100091.59;5072947;28;20109;-52
2021/11/07 05:40:13;;;;;;;8.50;0.57;;;;;;;10.56;100.00;100100.22;5072838;28;20044;-52
2021/11/07 05:43:16;;;;;;;0.85;0.85;;;;;;;10.62;100.00;100086.41;5073311;28;20055;-52
2021/11/07 05:46:19;;;;;;;18.02;1.25;;;;;;;10.64;100.00;100081.91;5072714;28;20064;-52
2021/11/07 05:49:23;;;;;;;4.05;0.68;;;;;;;10.63;100.00;100082.41;5072930;28;20039;-52
2021/11/07 05:52:26;;;;;;;0.28;0.28;;;;;;;10.64;100.00;100097.84;5072678;28;20090;-53
2021/11/07 05:55:29;;;;;;;0.63;0.40;;;;;;;10.64;100.00;100093.06;5072896;28;20094;-52
2021/11/07 05:58:32;;;;;;;0.10;0.10;;;;;;;10.67;100.00;100102.50;5072397;28;20194;-52
2021/11/07 06:01:36;;;;;;;0.25;0.25;;;;;;;10.76;100.00;100104.47;5072778;28;20078;-52
2021/11/07 06:04:38;;;;;;;0.30;0.22;;;;;;;10.76;100.00;100094.09;5072156;28;20054;-52
2021/11/07 06:07:42;;;;;;;3.83;2.00;;;;;;;10.78;100.00;100101.97;5072719;28;20040;-52
2021/11/07 06:10:45;;;;;;;0.30;0.30;;;;;;;10.85;100.00;100119.13;5072268;28;20095;-52
2021/11/07 06:13:48;;;;;;;6.10;0.93;;;;;;;10.89;100.00;100114.16;5072582;28;20098;-53
2021/11/07 06:16:51;;;;;;;1.58;0.77;;;;;;;10.92;100.00;100106.84;5084189;28;20059;-52
2021/11/07 06:19:54;;;;;;;14.50;1.65;;;;;;;10.92;100.00;100116.00;5072687;28;20090;-53
2021/11/07 06:22:57;;;;;;;8.20;0.70;;;;;;;11.00;100.00;100125.53;5072229;28;20051;-54
2021/11/07 06:26:01;;;;;;;8.20;0.57;;;;;;;11.02;100.00;100125.09;5072538;28;20055;-53
2021/11/07 06:29:04;;;;;;;3.60;0.43;;;;;;;11.10;100.00;100137.44;5072055;28;20122;-52
2021/11/07 06:32:07;;;;;;;1.45;0.40;;;;;;;11.18;100.00;100133.03;5072351;28;20047;-52
2021/11/07 06:35:13;;;;;;;10.02;0.25;;;;;;;11.23;100.00;100124.03;5072101;28;20106;-53
2021/11/07 06:38:16;;;;;;;6.38;1.77;;;;;;;11.26;100.00;100131.47;5072334;28;20090;-52
2021/11/07 06:41:19;;;;;;;1.98;0.88;;;;;;;11.27;100.00;100128.19;5071894;28;20119;-53
2021/11/07 06:44:22;;;;;;;4.90;0.88;;;;;;;11.22;100.00;100122.50;5076048;28;20086;-53
2021/11/07 06:47:26;;;;;;;11.80;1.50;;;;;;;11.14;100.00;100130.44;5076501;28;20044;-52
2021/11/07 06:50:29;;;;;;;0.45;0.45;;;;;;;11.07;100.00;100155.09;5076384;28;20456;-52
2021/11/07 06:53:32;;;;;;;1.88;1.20;;;;;;;11.00;100.00;100155.44;5074937;28;20538;-52
2021/11/07 06:56:35;;;;;;;8.57;2.72;;;;;;;11.02;100.00;100147.38;5076151;28;20048;-52
2021/11/07 06:59:39;;;;;;;0.30;0.30;;;;;;;11.00;100.00;100138.72;5088033;28;20047;-52
2021/11/07 07:02:42;;;;;;;16.92;1.90;;;;;;;10.85;100.00;100146.22;5094365;28;20507;-52
2021/11/07 07:05:45;;;;;;;6.10;0.88;;;;;;;10.67;100.00;100158.19;5094270;28;20043;-52
2021/11/07 07:12:06;;;;;;;2.25;1.17;;;;;;;10.64;100.00;100171.03;5076000;28;20097;-52
2021/11/07 07:15:14;;;;;;;8.60;0.70;;;;;;;10.55;100.00;100173.06;5076202;28;20052;-52
2021/11/07 07:18:33;;;;;;;0.40;0.40;;;;;;;10.49;100.00;100180.50;5075929;28;20075;-52
2021/11/07 07:21:45;;;;;;;3.75;1.00;;;;;;;10.43;100.00;100176.81;5075712;28;20498;-52
2021/11/07 07:34:14;;;;;;;4.03;0.80;;;;;;;10.37;100.00;100179.44;5075590;28;20062;-52
2021/11/07 07:37:17;;;;;;;9.90;1.45;;;;;;;10.39;100.00;100179.00;5075337;28;20101;-52
2021/11/07 07:40:20;;;;;;;1.92;0.60;;;;;;;10.32;100.00;100168.16;5075152;28;20034;-52
2021/11/07 07:43:25;;;;;;;10.82;1.95;;;;;;;10.36;100.00;100174.34;5074916;28;20044;-52
2021/11/07 07:46:29;;;;;;;3.22;1.10;;;;;;;10.33;100.00;100183.66;5084130;28;20046;-52
2021/11/07 07:49:32;;;;;;;2.70;1.40;;;;;;;10.24;100.00;100181.66;5077085;28;20090;-52
2021/11/07 07:52:35;;;;;;;14.82;0.85;;;;;;;10.26;100.00;100184.72;5073818;28;20047;-52
2021/11/07 07:55:38;;;;;;;6.03;0.50;;;;;;;10.31;100.00;100198.00;5075063;28;20087;-52
2021/11/07 07:58:41;;;;;;;1.60;1.05;;;;;;;10.31;100.00;100194.47;5074868;28;20500;-52
2021/11/07 08:01:45;;;;;;;1.20;0.70;;;;;;;10.39;100.00;100176.22;5074873;28;20031;-52
2021/11/07 08:04:49;;;;;;;4.38;1.17;;;;;;;10.50;100.00;100196.75;5072466;28;20056;-52
2021/11/07 08:07:52;;;;;;;2.63;0.45;;;;;;;10.52;100.00;100199.84;5074852;28;20063;-52
2021/11/07 08:10:55;;;;;;;0.77;0.73;;;;;;;10.61;100.00;100210.97;5074265;28;20542;-53
2021/11/07 08:13:58;;;;;;;1.73;0.75;;;;;;;10.79;100.00;100221.28;5074016;28;20094;-52
2021/11/07 08:17:01;;;;;;;0.90;0.90;;;;;;;10.85;100.00;100210.31;5075305;28;20058;-53
2021/11/07 08:20:08;;;;;;;17.65;1.77;;;;;;;10.89;100.00;100214.47;5074561;28;20178;-52
2021/11/07 08:23:11;;;;;;;4.18;0.77;;;;;;;10.86;100.00;100225.75;5074072;28;20154;-52
2021/11/07 08:26:16;;;;;;;5.10;0.52;;;;;;;10.84;100.00;100217.09;5073588;28;20039;-52
2021/11/07 08:29:20;;;;;;;1.27;0.45;;;;;;;10.77;100.00;100220.22;5074027;28;20093;-53
2021/11/07 08:32:23;;;;;;;3.47;0.90;;;;;;;10.86;100.00;100218.19;5073939;28;20058;-52
2021/11/07 08:35:26;;;;;;;0.65;0.50;;;;;;;10.92;100.00;100235.03;5073796;28;20094;-53
2021/11/07 08:38:35;;;;;;;1.75;0.75;;;;;;;11.01;100.00;100235.00;5074033;28;20504;-52
2021/11/07 08:41:44;;;;;;;4.03;1.05;;;;;;;11.01;100.00;100229.44;5073541;28;20083;-52
2021/11/07 09:01:42;;;;;;;1.77;1.67;;;;;;;11.08;100.00;100215.19;5073300;28;20047;-52
2021/11/07 09:11:10;;;;;;;5.30;1.02;;;;;;;11.11;100.00;100230.97;5073336;28;20059;-52
2021/11/07 09:14:13;;;;;;;3.33;1.33;;;;;;;11.15;100.00;100231.56;5073449;28;20127;-52
2021/11/07 09:17:17;;;;;;;1.63;0.93;;;;;;;11.11;100.00;100230.97;5077575;28;20119;-52
2021/11/07 09:23:56;;;;;;;9.65;0.93;;;;;;;11.30;100.00;100226.88;5067779;28;20047;-52
2021/11/07 09:27:05;;;;;;;0.17;0.10;;;;;;;11.36;100.00;100231.31;5073363;28;20047;-52
2021/11/07 09:36:46;;;;;;;5.03;0.93;;;;;;;11.49;100.00;100244.28;5073266;28;20047;-52
2021/11/07 09:39:54;;;;;;;14.32;1.30;;;;;;;11.52;100.00;100243.34;5072856;28;20411;-52
2021/11/07 09:43:13;;;;;;;0.98;0.50;;;;;;;11.48;100.00;100235.13;5072744;28;20111;-53
2021/11/07 09:49:32;;;;;;;4.97;0.95;;;;;;;11.49;100.00;100231.09;5073142;28;20483;-53
2021/11/07 09:52:39;;;;;;;26.50;2.42;;;;;;;11.47;100.00;100233.59;5072199;28;20459;-53
2021/11/07 09:55:45;;;;;;;4.95;0.80;;;;;;;11.50;100.00;100229.09;5072118;28;20048;-53
2021/11/07 09:58:51;;;;;;;11.48;1.13;;;;;;;11.52;100.00;100232.94;5072662;28;20040;-53
2021/11/07 10:01:58;;;;;;;15.63;1.75;;;;;;;11.52;100.00;100234.97;5072408;28;20483;-53
2021/11/07 10:05:02;;;;;;;0.73;0.73;;;;;;;11.63;100.00;100247.13;5071926;28;20082;-53
2021/11/07 10:08:09;;;;;;;12.00;1.23;;;;;;;11.71;100.00;100234.44;5072517;28;20454;-53
2021/11/07 10:11:13;;;;;;;5.82;1.50;;;;;;;11.79;100.00;100238.41;5072544;28;20055;-53
2021/11/07 10:14:19;;;;;;;23.60;3.15;;;;;;;11.94;100.00;100242.03;5072617;28;20121;-52
2021/11/07 10:17:46;;;;;;;6.15;1.00;;;;;;;12.07;100.00;100256.50;5079368;28;20086;-53
2021/11/07 10:20:54;;;;;;;4.93;1.27;;;;;;;12.18;100.00;100276.28;5073805;28;20110;-53
2021/11/07 10:24:07;;;;;;;6.28;2.13;;;;;;;12.28;100.00;100273.44;5071510;28;20070;-53
2021/11/07 10:27:13;;;;;;;16.05;1.23;;;;;;;12.35;100.00;100259.84;5072260;28;20051;-53
2021/11/07 10:30:23;;;;;;;6.22;0.90;;;;;;;12.39;100.00;100268.06;5072056;28;20054;-52
2021/11/07 10:34:01;;;;;;;3.88;1.33;;;;;;;12.42;100.00;100253.13;5072230;28;20050;-52
2021/11/07 10:41:01;;;;;;;0.55;0.55;;;;;;;12.54;100.00;100254.91;5080308;28;20040;-52
2021/11/07 10:54:25;;;;;;;5.05;1.85;;;;;;;13.10;100.00;100270.69;5072223;28;20051;-53
2021/11/07 10:57:31;;;;;;;1.45;0.30;;;;;;;13.19;100.00;100260.16;5071333;28;20127;-53
2021/11/07 11:00:34;;;;;;;4.20;1.00;;;;;;;13.26;100.00;100273.75;5072013;28;20052;-53
2021/11/07 11:03:53;;;;;;;4.45;1.65;;;;;;;13.21;100.00;100273.66;5071702;28;20056;-54
2021/11/07 11:06:56;;;;;;;3.45;1.17;;;;;;;13.24;100.00;100283.88;5071920;28;20674;-52
2021/11/07 11:10:22;;;;;;;8.32;2.00;;;;;;;13.25;100.00;100286.19;5071071;28;20039;-53
2021/11/07 11:16:46;;;;;;;10.05;2.53;;;;;;;13.18;100.00;100281.00;5074374;28;20039;-53
2021/11/07 11:23:06;;;;;;;5.38;0.73;;;;;;;13.23;100.00;100274.69;5071801;28;20442;-54
2021/11/07 11:36:27;;;;;;;7.85;1.58;;;;;;;13.04;100.00;100276.13;5075305;28;20052;-52
2021/11/07 11:39:38;;;;;;;6.15;0.63;;;;;;;13.00;100.00;100281.16;5075213;28;20043;-53
2021/11/07 11:45:47;;;;;;;12.15;0.75;;;;;;;13.16;100.00;100297.47;5075074;28;20105;-53
2021/11/07 11:55:30;;;;;;;1.42;0.77;;;;;;;13.48;100.00;100306.91;5075335;28;20105;-51
2021/11/07 11:58:43;;;;;;;1.60;0.80;;;;;;;13.46;100.00;100296.22;5074674;28;20099;-51
2021/11/07 12:02:10;;;;;;;2.67;0.98;;;;;;;13.59;100.00;100282.66;5074892;28;20086;-53
2021/11/07 12:08:59;;;;;;;3.38;0.50;;;;;;;13.56;100.00;100278.03;5074800;28;20035;-51
2021/11/07 12:18:26;;;;;;;8.32;0.43;;;;;;;13.89;100.00;100265.78;5074619;28;21086;-51
2021/11/07 12:21:48;;;;;;;4.53;0.55;;;;;;;13.89;100.00;100254.56;5073769;28;20047;-50
2021/11/07 12:24:53;;;;;;;0.25;0.25;;;;;;;13.94;100.00;100245.50;5073850;28;20047;-52
2021/11/07 12:27:56;;;;;;;8.25;0.90;;;;;;;13.88;100.00;100237.00;5088765;28;20552;-53
2021/11/07 12:31:04;;;;;;;3.50;0.85;;;;;;;13.83;100.00;100245.34;5087490;28;20056;-53
2021/11/07 12:40:43;;;;;;;2.83;1.30;;;;;;;13.85;100.00;100228.81;5073836;28;20046;-51
2021/11/07 12:43:48;;;;;;;9.20;1.33;;;;;;;13.82;100.00;100210.22;5074004;28;20055;-52
2021/11/07 12:46:57;;;;;;;1.17;0.32;;;;;;;13.70;100.00;100214.88;5073874;28;20119;-52
2021/11/07 12:50:11;;;;;;;9.32;0.80;;;;;;;13.60;100.00;100205.84;5073956;28;20487;-52
2021/11/07 12:53:14;;;;;;;1.17;0.43;;;;;;;13.56;100.00;100224.88;5081426;28;20177;-53
2021/11/07 12:56:35;;;;;;;9.70;1.08;;;;;;;13.62;100.00;100242.50;5077432;28;20089;-52
2021/11/07 12:59:46;;;;;;;0.85;0.55;;;;;;;13.61;100.00;100240.97;5073568;28;20039;-52
2021/11/07 13:02:49;;;;;;;1.58;0.30;;;;;;;13.64;100.00;100256.03;5073483;28;20107;-52
2021/11/07 13:05:53;;;;;;;2.03;0.80;;;;;;;13.68;100.00;100257.38;5072548;28;20054;-52
2021/11/07 13:08:59;;;;;;;10.05;0.90;;;;;;;13.68;100.00;100256.59;5073246;28;20044;-53
2021/11/07 13:12:27;;;;;;;8.57;1.35;;;;;;;13.80;100.00;100246.31;5085296;28;20433;-51
2021/11/07 13:22:25;;;;;;;4.50;1.17;;;;;;;13.69;100.00;100247.69;5072480;28;20128;-47
2021/11/07 13:25:45;;;;;;;2.17;0.70;;;;;;;13.67;100.00;100244.63;5072867;28;20043;-49
2021/11/07 13:29:09;;;;;;;1.20;0.20;;;;;;;13.48;100.00;100240.53;5072356;28;20070;-46
2021/11/07 13:35:31;;;;;;;0.52;0.40;;;;;;;13.46;100.00;100229.06;5072956;28;20055;-47
2021/11/07 13:38:47;;;;;;;4.88;0.60;;;;;;;13.53;100.00;100228.66;5073186;28;20038;-49
2021/11/07 13:41:58;;;;;;;5.25;1.08;;;;;;;13.61;100.00;100229.78;5072903;28;20048;-49
2021/11/07 13:45:02;;;;;;;2.90;0.80;;;;;;;13.65;100.00;100235.94;5088172;28;20093;-51
2021/11/07 13:48:36;;;;;;;5.68;0.85;;;;;;;13.58;100.00;100221.56;5073015;28;20447;-52
2021/11/07 13:51:52;;;;;;;0.60;0.60;;;;;;;13.57;100.00;100223.63;5072279;28;20071;-50
2021/11/07 13:54:56;;;;;;;8.98;1.15;;;;;;;13.48;100.00;100226.53;5072599;28;20086;-52
2021/11/07 13:58:14;;;;;;;3.20;1.42;;;;;;;13.36;100.00;100230.41;5072759;28;20051;-51
2021/11/07 14:01:18;;;;;;;14.02;1.88;;;;;;;13.30;100.00;100254.72;5072773;28;20124;-50
2021/11/07 14:04:21;;;;;;;1.00;0.93;;;;;;;13.36;100.00;100240.84;5072665;28;20055;-53
2021/11/07 14:07:32;;;;;;;8.30;0.98;;;;;;;13.23;100.00;100246.72;5072742;28;20051;-52
2021/11/07 14:10:39;;;;;;;4.82;1.77;;;;;;;13.15;100.00;100259.56;5087427;28;20089;-50
2021/11/07 14:13:46;;;;;;;1.33;0.47;;;;;;;13.19;100.00;100262.94;5073079;28;20044;-51
2021/11/07 14:16:50;;;;;;;1.55;0.95;;;;;;;13.27;100.00;100269.72;5084144;28;20046;-51
2021/11/07 14:19:55;;;;;;;4.30;1.10;;;;;;;13.23;100.00;100260.72;5072080;28;20125;-51
2021/11/07 14:23:09;;;;;;;2.13;0.45;;;;;;;13.20;100.00;100278.47;5072915;28;20047;-50
2021/11/07 14:26:24;;;;;;;7.35;2.30;;;;;;;13.18;100.00;100275.41;5081540;28;20079;-50
2021/11/07 14:32:42;;;;;;;8.73;1.92;;;;;;;13.17;100.00;100273.84;5071964;28;20405;-50
2021/11/07 14:35:49;;;;;;;4.78;1.55;;;;;;;13.16;100.00;100261.13;5072210;28;20063;-50
2021/11/07 14:39:14;;;;;;;2.58;1.73;;;;;;;13.16;100.00;100254.75;5072655;28;20059;-50
2021/11/07 14:45:40;;;;;;;8.05;0.95;;;;;;;13.00;100.00;100244.03;5072610;28;20435;-51
2021/11/07 14:52:17;;;;;;;11.10;1.73;;;;;;;12.84;100.00;100248.09;5072239;28;20048;-54
2021/11/07 14:55:39;;;;;;;0.52;0.43;;;;;;;12.77;100.00;100246.44;5072066;28;20106;-51
2021/11/07 14:59:38;;;;;;;5.20;0.80;;;;;;;12.73;100.00;100267.47;5072161;28;20123;-53
2021/11/07 15:02:45;;;;;;;6.70;1.85;;;;;;;12.68;100.00;100288.44;5072159;28;20042;-51
2021/11/07 15:09:31;;;;;;;1.30;0.45;;;;;;;12.68;100.00;100287.69;5074924;28;20048;-50
2021/11/07 15:13:02;;;;;;;5.78;0.80;;;;;;;12.59;100.00;100280.16;5075296;28;20089;-53
2021/11/07 15:16:13;;;;;;;0.73;0.73;;;;;;;12.49;100.00;100261.94;5080749;28;20075;-54
2021/11/07 15:19:35;;;;;;;3.67;0.70;;;;;;;12.31;100.00;100272.47;5079224;28;20127;-52
2021/11/07 15:22:41;;;;;;;2.58;0.75;;;;;;;12.23;100.00;100279.66;5082778;28;20043;-52
2021/11/07 15:25:45;;;;;;;0.85;0.60;;;;;;;12.15;100.00;100279.25;5075240;28;20048;-56
2021/11/07 15:29:05;;;;;;;0.85;0.60;;;;;;;12.11;100.00;100285.00;5074689;28;20047;-56
2021/11/07 15:32:12;;;;;;;4.15;0.82;;;;;;;12.01;100.00;100286.34;5074154;28;20091;-57
2021/11/07 15:35:20;;;;;;;4.85;0.95;;;;;;;11.99;100.00;100288.81;5074266;28;20048;-56
2021/11/07 15:38:25;;;;;;;7.60;0.95;;;;;;;12.02;100.00;100290.66;5062244;28;20075;-55
2021/11/07 15:41:28;;;;;;;14.10;1.50;;;;;;;12.17;100.00;100288.69;5074746;28;20089;-56
2021/11/07 15:44:34;;;;;;;5.45;2.30;;;;;;;12.26;100.00;100301.06;5080336;28;20487;-55
2021/11/07 15:47:45;;;;;;;3.90;1.27;;;;;;;12.29;100.00;100289.69;5074893;28;20035;-56
2021/11/07 15:50:56;;;;;;;7.38;1.90;;;;;;;12.23;100.00;100296.41;5075071;28;20428;-56
2021/11/07 15:54:07;;;;;;;;;;;;;;;12.23;100.00;100276.88;5075424;28;20043;-55
2021/11/07 15:57:48;;;;;;;19.07;4.07;;;;;;;12.23;100.00;100279.66;5075097;28;19919;-57
2021/11/07 16:07:21;;;;;;;5.50;2.33;;;;;;;12.23;100.00;100302.00;5075042;28;20446;-62
2021/11/07 16:10:45;;;;;;;4.53;2.50;;;;;;;12.17;100.00;100293.53;5074868;28;20082;-60
2021/11/07 16:16:58;;;;;;;8.80;3.15;;;;;;;12.16;100.00;100281.56;5076517;28;20040;-58
2021/11/07 16:20:10;;;;;;;7.32;3.50;;;;;;;12.03;100.00;100281.03;5074002;28;20039;-63
2021/11/07 16:23:12;;;;;;;9.52;3.05;;;;;;;11.84;100.00;100282.41;5074989;28;20055;-63
2021/11/07 16:26:17;;;;;;;6.95;2.38;;;;;;;11.69;100.00;100270.41;5074650;28;20052;-63
2021/11/07 16:29:29;;;;;;;3.17;1.50;;;;;;;11.84;100.00;100270.47;5074516;28;20094;-62
2021/11/07 16:32:46;;;;;;;9.27;1.65;;;;;;;11.87;100.00;100280.66;5074634;28;20040;-62
2021/11/07 16:36:02;;;;;;;7.75;1.55;;;;;;;11.97;100.00;100263.41;5073573;28;20059;-63
2021/11/07 16:42:17;;;;;;;7.72;1.70;;;;;;;12.05;100.00;100308.47;5074183;28;20032;-61
2021/11/07 16:45:21;;;;;;;12.73;1.55;;;;;;;12.06;100.00;100313.56;5074109;28;20052;-60
2021/11/07 16:48:23;;;;;;;13.15;3.08;;;;;;;12.06;100.00;100310.78;5074163;28;20167;-60
2021/11/07 16:51:36;;;;;;;9.77;2.33;;;;;;;12.07;100.00;100326.31;5073808;28;20560;-60
2021/11/07 16:54:58;;;;;;;8.07;2.40;;;;;;;12.08;100.00;100322.25;5073565;28;20082;-60
2021/11/07 16:58:02;;;;;;;10.38;2.38;;;;;;;12.13;100.00;100315.25;5073614;28;20044;-59
2021/11/07 17:01:05;;;;;;;5.55;1.15;;;;;;;12.01;100.00;100319.84;5074042;28;20438;-58
2021/11/07 17:04:12;;;;;;;9.68;2.67;;;;;;;11.98;100.00;100298.44;5073427;28;20431;-62
2021/11/07 17:07:25;;;;;;;8.45;1.02;;;;;;;11.96;100.00;100316.91;5073822;28;20047;-53
2021/11/07 17:10:28;;;;;;;3.20;1.40;;;;;;;11.88;100.00;100321.28;5073538;28;20075;-55
2021/11/07 17:13:31;;;;;;;7.90;0.95;;;;;;;11.81;100.00;100310.47;5073702;28;20040;-55